createdAt,value
2022-11-14T00:00:18.817Z,4.513
2022-11-14T00:01:18.719Z,4.519
2022-11-14T00:02:18.428Z,4.518
2022-11-14T00:03:18.045Z,4.526
2022-11-14T00:04:17.399Z,4.516
2022-11-14T00:05:17.758Z,4.506
2022-11-14T00:06:17.924Z,4.508
2022-11-14T00:07:18.421Z,4.513
2022-11-14T00:08:17.506Z,4.473
2022-11-14T00:09:17.888Z,4.433
2022-11-14T00:10:18.286Z,4.418
2022-11-14T00:11:17.969Z,4.433
2022-11-14T00:12:18.279Z,4.434
2022-11-14T00:13:17.647Z,4.416
2022-11-14T00:14:17.986Z,4.420
2022-11-14T00:15:17.748Z,4.403
2022-11-14T00:16:18.185Z,4.389
2022-11-14T00:17:17.661Z,4.388
2022-11-14T00:18:18.191Z,4.363
2022-11-14T00:19:17.854Z,4.343
2022-11-14T00:20:18.492Z,4.329
2022-11-14T00:21:17.759Z,4.340
2022-11-14T00:22:18.289Z,4.355
2022-11-14T00:23:17.773Z,4.355
2022-11-14T00:24:18.333Z,4.346
2022-11-14T00:25:18.102Z,4.366
2022-11-14T00:26:17.694Z,4.351
2022-11-14T00:27:18.139Z,4.336
2022-11-14T00:28:17.502Z,4.321
2022-11-14T00:29:17.923Z,4.338
2022-11-14T00:30:18.512Z,4.321
2022-11-14T00:31:18.128Z,4.304
2022-11-14T00:32:17.807Z,4.306
2022-11-14T00:33:25.126Z,4.295
2022-11-14T00:34:17.504Z,4.295
2022-11-14T00:35:18.035Z,4.280
2022-11-14T00:36:17.988Z,4.275
2022-11-14T00:37:17.516Z,4.264
2022-11-14T00:38:17.720Z,4.266
2022-11-14T00:39:18.022Z,4.241
2022-11-14T00:40:17.391Z,4.216
2022-11-14T00:41:17.541Z,4.196
2022-11-14T00:42:18.053Z,4.203
2022-11-14T00:43:17.667Z,4.198
2022-11-14T00:44:17.921Z,4.193
2022-11-14T00:45:18.291Z,4.195
2022-11-14T00:46:17.616Z,4.203
2022-11-14T00:47:17.979Z,4.198
2022-11-14T00:48:18.282Z,4.191
2022-11-14T00:49:17.766Z,4.196
2022-11-14T00:50:18.310Z,4.184
2022-11-14T00:51:17.948Z,4.201
2022-11-14T00:52:18.154Z,4.210
2022-11-14T00:53:17.407Z,4.208
2022-11-14T00:54:17.667Z,4.211
2022-11-14T00:55:18.263Z,4.196
2022-11-14T00:56:17.835Z,4.188
2022-11-14T00:57:18.164Z,4.181
2022-11-14T00:58:17.482Z,4.170
2022-11-14T00:59:17.922Z,4.174
2022-11-14T01:00:18.985Z,4.165
2022-11-14T01:01:20.030Z,4.157
2022-11-14T01:02:17.569Z,4.157
2022-11-14T01:03:18.229Z,4.164
2022-11-14T01:04:17.652Z,4.153
2022-11-14T01:05:18.584Z,4.151
2022-11-14T01:06:18.002Z,4.138
2022-11-14T01:07:17.585Z,4.121
2022-11-14T01:08:17.997Z,4.116
2022-11-14T01:09:17.774Z,4.119
2022-11-14T01:10:18.293Z,4.119
2022-11-14T01:11:17.732Z,4.131
2022-11-14T01:12:18.087Z,4.116
2022-11-14T01:13:17.910Z,4.128
2022-11-14T01:14:18.078Z,4.130
2022-11-14T01:15:17.919Z,4.119
2022-11-14T01:16:18.214Z,4.125
2022-11-14T01:17:17.465Z,4.102
2022-11-14T01:18:18.030Z,4.099
2022-11-14T01:19:17.449Z,4.107
2022-11-14T01:20:18.092Z,4.118
2022-11-14T01:21:17.640Z,4.108
2022-11-14T01:22:17.839Z,4.094
2022-11-14T01:23:18.518Z,4.099
2022-11-14T01:24:18.298Z,4.098
2022-11-14T01:25:18.078Z,4.088
2022-11-14T01:26:17.662Z,4.085
2022-11-14T01:27:18.123Z,4.078
2022-11-14T01:28:17.440Z,4.074
2022-11-14T01:29:17.480Z,4.076
2022-11-14T01:30:45.682Z,4.085
2022-11-14T01:31:17.817Z,4.085
2022-11-14T01:32:18.212Z,4.099
2022-11-14T01:33:17.510Z,4.125
2022-11-14T01:34:17.719Z,4.123
2022-11-14T01:35:18.100Z,4.101
2022-11-14T01:36:17.518Z,4.091
2022-11-14T01:37:17.903Z,4.086
2022-11-14T01:38:18.266Z,4.078
2022-11-14T01:39:17.972Z,4.083
2022-11-14T01:40:18.479Z,4.083
2022-11-14T01:41:18.111Z,4.071
2022-11-14T01:42:17.813Z,4.071
2022-11-14T01:43:17.485Z,4.054
2022-11-14T01:44:17.942Z,4.043
2022-11-14T01:45:18.302Z,4.028
2022-11-14T01:46:17.662Z,4.030
2022-11-14T01:47:18.131Z,4.038
2022-11-14T01:48:17.609Z,4.033
2022-11-14T01:49:17.942Z,4.043
2022-11-14T01:50:18.355Z,4.039
2022-11-14T01:51:17.773Z,4.025
2022-11-14T01:52:18.117Z,4.013
2022-11-14T01:53:17.901Z,4.003
2022-11-14T01:54:18.213Z,3.996
2022-11-14T01:55:17.914Z,3.988
2022-11-14T01:56:18.437Z,3.980
2022-11-14T01:57:18.071Z,3.993
2022-11-14T01:58:17.549Z,3.986
2022-11-14T01:59:17.817Z,3.981
2022-11-14T02:00:19.333Z,3.973
2022-11-14T02:01:17.997Z,3.954
2022-11-14T02:02:17.500Z,3.956
2022-11-14T02:03:17.972Z,3.964
2022-11-14T02:04:21.644Z,3.960
2022-11-14T02:05:18.320Z,3.963
2022-11-14T02:06:18.514Z,3.953
2022-11-14T02:07:18.071Z,3.910
2022-11-14T02:08:17.643Z,3.930
2022-11-14T02:09:18.343Z,3.894
2022-11-14T02:10:18.093Z,3.875
2022-11-14T02:11:16.281Z,3.875
2022-11-14T02:12:17.716Z,3.861
2022-11-14T02:13:17.950Z,3.829
2022-11-14T02:14:18.048Z,3.861
2022-11-14T02:15:17.768Z,3.873
2022-11-14T02:16:17.980Z,3.856
2022-11-14T02:17:37.022Z,3.821
2022-11-14T02:18:17.845Z,3.821
2022-11-14T02:19:18.390Z,3.796
2022-11-14T02:20:18.168Z,3.813
2022-11-14T02:21:17.472Z,3.813
2022-11-14T02:22:17.897Z,3.813
2022-11-14T02:23:18.281Z,3.798
2022-11-14T02:24:17.698Z,3.788
2022-11-14T02:25:18.403Z,3.765
2022-11-14T02:26:18.083Z,3.758
2022-11-14T02:27:17.666Z,3.766
2022-11-14T02:28:18.372Z,3.738
2022-11-14T02:29:17.697Z,3.716
2022-11-14T02:30:18.565Z,3.717
2022-11-14T02:31:18.086Z,3.722
2022-11-14T02:32:17.701Z,3.716
2022-11-14T02:33:18.512Z,3.705
2022-11-14T02:34:17.927Z,3.732
2022-11-14T02:35:18.105Z,3.725
2022-11-14T02:36:17.492Z,3.706
2022-11-14T02:37:17.885Z,3.705
2022-11-14T02:38:18.277Z,3.711
2022-11-14T02:39:17.664Z,3.710
2022-11-14T02:40:17.927Z,3.701
2022-11-14T02:41:18.333Z,3.692
2022-11-14T02:42:17.800Z,3.670
2022-11-14T02:43:18.090Z,3.670
2022-11-14T02:44:17.301Z,3.687
2022-11-14T02:45:17.739Z,3.702
2022-11-14T02:46:18.172Z,3.687
2022-11-14T02:47:17.650Z,3.655
2022-11-14T02:48:18.279Z,3.638
2022-11-14T02:49:17.623Z,3.637
2022-11-14T02:50:18.320Z,3.631
2022-11-14T02:51:17.427Z,3.640
2022-11-14T02:52:17.742Z,3.628
2022-11-14T02:53:18.127Z,3.619
2022-11-14T02:54:17.369Z,3.619
2022-11-14T02:55:17.783Z,3.618
2022-11-14T02:56:18.024Z,3.598
2022-11-14T02:57:17.284Z,3.581
2022-11-14T02:58:17.800Z,3.592
2022-11-14T02:59:18.079Z,3.599
2022-11-14T03:00:21.742Z,3.576
2022-11-14T03:01:27.716Z,3.586
2022-11-14T03:02:18.307Z,3.586
2022-11-14T03:03:17.866Z,3.575
2022-11-14T03:04:18.315Z,3.561
2022-11-14T03:05:17.883Z,3.538
2022-11-14T03:06:18.158Z,3.535
2022-11-14T03:07:17.547Z,3.528
2022-11-14T03:08:18.755Z,3.508
2022-11-14T03:09:18.408Z,3.505
2022-11-14T03:10:17.877Z,3.484
2022-11-14T03:11:18.294Z,3.471
2022-11-14T03:12:17.468Z,3.461
2022-11-14T03:13:17.826Z,3.468
2022-11-14T03:14:17.870Z,3.470
2022-11-14T03:15:18.686Z,3.451
2022-11-14T03:16:18.292Z,3.421
2022-11-14T03:17:17.954Z,3.401
2022-11-14T03:18:18.587Z,3.420
2022-11-14T03:19:18.021Z,3.403
2022-11-14T03:20:17.499Z,3.391
2022-11-14T03:21:18.032Z,3.384
2022-11-14T03:22:17.756Z,3.388
2022-11-14T03:23:18.160Z,3.384
2022-11-14T03:24:17.785Z,3.373
2022-11-14T03:25:18.138Z,3.373
2022-11-14T03:26:17.450Z,3.376
2022-11-14T03:27:18.013Z,3.388
2022-11-14T03:28:17.537Z,3.391
2022-11-14T03:29:17.794Z,3.383
2022-11-14T03:30:18.275Z,3.378
2022-11-14T03:31:17.668Z,3.381
2022-11-14T03:32:18.031Z,3.393
2022-11-14T03:33:17.403Z,3.411
2022-11-14T03:34:17.937Z,3.421
2022-11-14T03:35:18.327Z,3.421
2022-11-14T03:36:18.043Z,3.418
2022-11-14T03:37:17.746Z,3.421
2022-11-14T03:38:18.371Z,3.423
2022-11-14T03:39:17.856Z,3.428
2022-11-14T03:40:17.860Z,3.446
2022-11-14T03:41:18.266Z,3.438
2022-11-14T03:42:17.742Z,3.433
2022-11-14T03:43:17.941Z,3.423
2022-11-14T03:44:18.064Z,3.428
2022-11-14T03:45:17.402Z,3.450
2022-11-14T03:46:17.678Z,3.463
2022-11-14T03:47:17.516Z,3.470
2022-11-14T03:48:17.895Z,3.483
2022-11-14T03:49:18.337Z,3.484
2022-11-14T03:50:17.680Z,3.473
2022-11-14T03:51:18.007Z,3.476
2022-11-14T03:52:17.285Z,3.470
2022-11-14T03:53:17.963Z,3.488
2022-11-14T03:54:18.465Z,3.491
2022-11-14T03:55:17.989Z,3.503
2022-11-14T03:56:17.669Z,3.533
2022-11-14T03:57:18.234Z,3.536
2022-11-14T03:58:17.281Z,3.571
2022-11-14T03:59:17.419Z,3.595
2022-11-14T04:00:19.010Z,3.609
2022-11-14T04:01:17.697Z,3.621
2022-11-14T04:02:18.207Z,3.657
2022-11-14T04:03:17.479Z,3.672
2022-11-14T04:04:18.018Z,3.697
2022-11-14T04:05:17.643Z,3.730
2022-11-14T04:06:18.179Z,3.756
2022-11-14T04:07:17.668Z,3.761
2022-11-14T04:08:18.128Z,3.773
2022-11-14T04:09:17.722Z,3.788
2022-11-14T04:10:18.129Z,3.793
2022-11-14T04:11:18.085Z,3.804
2022-11-14T04:12:21.940Z,3.793
2022-11-14T04:13:18.297Z,3.797
2022-11-14T04:14:17.515Z,3.802
2022-11-14T04:15:17.870Z,3.797
2022-11-14T04:16:18.136Z,3.798
2022-11-14T04:17:17.837Z,3.827
2022-11-14T04:18:18.035Z,3.848
2022-11-14T04:19:18.164Z,3.877
2022-11-14T04:20:17.836Z,3.878
2022-11-14T04:21:18.343Z,3.868
2022-11-14T04:22:17.892Z,3.864
2022-11-14T04:23:18.281Z,3.864
2022-11-14T04:24:17.983Z,3.865
2022-11-14T04:25:17.480Z,3.880
2022-11-14T04:26:18.070Z,3.898
2022-11-14T04:27:17.471Z,3.885
2022-11-14T04:28:17.833Z,3.878
2022-11-14T04:29:18.366Z,3.869
2022-11-14T04:30:17.992Z,3.868
2022-11-14T04:31:17.508Z,3.861
2022-11-14T04:32:17.824Z,3.858
2022-11-14T04:33:18.634Z,3.853
2022-11-14T04:34:18.258Z,3.846
2022-11-14T04:35:17.864Z,3.831
2022-11-14T04:36:18.249Z,3.834
2022-11-14T04:37:17.726Z,3.836
2022-11-14T04:38:18.434Z,3.815
2022-11-14T04:39:18.192Z,3.799
2022-11-14T04:40:17.679Z,3.781
2022-11-14T04:41:17.984Z,3.776
2022-11-14T04:42:17.646Z,3.801
2022-11-14T04:43:18.000Z,3.793
2022-11-14T04:44:17.420Z,3.781
2022-11-14T04:45:18.263Z,3.763
2022-11-14T04:46:17.488Z,3.746
2022-11-14T04:47:18.019Z,3.758
2022-11-14T04:48:17.156Z,3.75
2022-11-14T04:49:17.639Z,3.758
2022-11-14T04:50:18.706Z,3.744
2022-11-14T04:51:18.169Z,3.734
2022-11-14T04:52:17.494Z,3.721
2022-11-14T04:53:18.071Z,3.720
2022-11-14T04:54:17.786Z,3.720
2022-11-14T04:55:18.106Z,3.711
2022-11-14T04:56:17.633Z,3.693
2022-11-14T04:57:18.129Z,3.688
2022-11-14T04:58:17.736Z,3.703
2022-11-14T04:59:23.440Z,3.710
2022-11-14T05:00:18.760Z,3.710
2022-11-14T05:01:18.670Z,3.755
2022-11-14T05:02:18.368Z,3.771
2022-11-14T05:03:18.161Z,3.798
2022-11-14T05:04:17.593Z,3.803
2022-11-14T05:05:18.248Z,3.808
2022-11-14T05:06:17.978Z,3.795
2022-11-14T05:07:18.808Z,3.791
2022-11-14T05:08:18.202Z,3.785
2022-11-14T05:09:17.813Z,3.773
2022-11-14T05:10:18.498Z,3.746
2022-11-14T05:11:18.096Z,3.75
2022-11-14T05:12:17.224Z,3.768
2022-11-14T05:13:17.701Z,3.779
2022-11-14T05:14:17.280Z,3.775
2022-11-14T05:15:18.374Z,3.773
2022-11-14T05:16:17.630Z,3.759
2022-11-14T05:17:18.138Z,3.743
2022-11-14T05:18:17.367Z,3.733
2022-11-14T05:19:17.693Z,3.720
2022-11-14T05:20:18.237Z,3.706
2022-11-14T05:21:17.634Z,3.691
2022-11-14T05:22:18.166Z,3.701
2022-11-14T05:23:17.490Z,3.706
2022-11-14T05:24:17.664Z,3.716
2022-11-14T05:25:18.432Z,3.734
2022-11-14T05:26:18.131Z,3.723
2022-11-14T05:27:17.471Z,3.714
2022-11-14T05:29:18.119Z,3.714
2022-11-14T05:31:17.600Z,3.710
2022-11-14T05:33:18.115Z,3.75
2022-11-14T05:34:17.838Z,3.769
2022-11-14T05:35:18.437Z,3.785
2022-11-14T05:36:17.863Z,3.788
2022-11-14T05:37:18.197Z,3.798
2022-11-14T05:38:17.679Z,3.789
2022-11-14T05:39:18.308Z,3.794
2022-11-14T05:40:18.125Z,3.769
2022-11-14T05:41:17.878Z,3.768
2022-11-14T05:42:18.104Z,3.798
2022-11-14T05:43:17.910Z,3.822
2022-11-14T05:44:18.135Z,3.874
2022-11-14T05:45:17.936Z,3.877
2022-11-14T05:46:18.276Z,3.891
2022-11-14T05:47:17.843Z,3.925
2022-11-14T05:48:18.593Z,3.944
2022-11-14T05:49:21.827Z,3.971
2022-11-14T05:50:18.117Z,3.983
2022-11-14T05:51:19.133Z,4.012
2022-11-14T05:52:17.960Z,4.044
2022-11-14T05:53:18.944Z,4.059
2022-11-14T05:54:18.392Z,4.119
2022-11-14T05:55:24.236Z,4.130
2022-11-14T05:56:18.075Z,4.142
2022-11-14T05:57:18.092Z,4.161
2022-11-14T05:58:17.529Z,4.168
2022-11-14T05:59:17.709Z,4.158
2022-11-14T06:00:19.483Z,4.171
2022-11-14T06:01:18.222Z,4.190
2022-11-14T06:02:17.984Z,4.199
2022-11-14T06:03:17.549Z,4.210
2022-11-14T06:04:18.182Z,4.222
2022-11-14T06:05:17.932Z,4.221
2022-11-14T06:06:17.955Z,4.228
2022-11-14T06:07:25.559Z,4.216
2022-11-14T06:08:18.172Z,4.216
2022-11-14T06:09:17.586Z,4.213
2022-11-14T06:10:18.382Z,4.211
2022-11-14T06:11:18.122Z,4.210
2022-11-14T06:12:36.850Z,4.188
2022-11-14T06:13:18.119Z,4.188
2022-11-14T06:14:18.255Z,4.175
2022-11-14T06:15:18.433Z,4.170
2022-11-14T06:16:18.495Z,4.168
2022-11-14T06:17:18.075Z,4.178
2022-11-14T06:18:17.634Z,4.168
2022-11-14T06:19:18.352Z,4.153
2022-11-14T06:20:17.989Z,4.133
2022-11-14T06:21:17.865Z,4.135
2022-11-14T06:22:18.241Z,4.148
2022-11-14T06:23:23.437Z,4.166
2022-11-14T06:24:18.223Z,4.178
2022-11-14T06:25:18.424Z,4.159
2022-11-14T06:26:17.710Z,4.166
2022-11-14T06:27:17.971Z,4.138
2022-11-14T06:28:19.109Z,4.105
2022-11-14T06:29:17.813Z,4.068
2022-11-14T06:30:18.529Z,4.054
2022-11-14T06:31:18.180Z,4.034
2022-11-14T06:32:17.874Z,4.039
2022-11-14T06:33:18.419Z,4.056
2022-11-14T06:34:17.767Z,4.076
2022-11-14T06:35:18.480Z,4.068
2022-11-14T06:36:18.220Z,4.079
2022-11-14T06:37:17.689Z,4.103
2022-11-14T06:38:18.464Z,4.131
2022-11-14T06:39:18.139Z,4.170
2022-11-14T06:40:17.455Z,4.184
2022-11-14T06:41:17.997Z,4.191
2022-11-14T06:42:18.012Z,4.191
2022-11-14T06:43:18.337Z,4.223
2022-11-14T06:44:17.819Z,4.235
2022-11-14T06:45:19.168Z,4.241
2022-11-14T06:46:18.213Z,4.253
2022-11-14T06:47:18.175Z,4.271
2022-11-14T06:48:17.628Z,4.298
2022-11-14T06:49:18.140Z,4.311
2022-11-14T06:50:17.535Z,4.343
2022-11-14T06:51:18.013Z,4.375
2022-11-14T06:52:17.460Z,4.398
2022-11-14T06:53:18.027Z,4.409
2022-11-14T06:54:23.611Z,4.443
2022-11-14T06:55:25.272Z,4.481
2022-11-14T06:56:20.607Z,4.503
2022-11-14T06:57:18.648Z,4.545
2022-11-14T06:58:22.199Z,4.579
2022-11-14T06:59:20.036Z,4.599
2022-11-14T07:00:20.216Z,4.611
2022-11-14T07:01:20.212Z,4.616
2022-11-14T07:02:21.652Z,4.628
2022-11-14T07:03:19.153Z,4.664
2022-11-14T07:04:21.466Z,4.698
2022-11-14T07:05:20.486Z,4.701
2022-11-14T07:06:18.986Z,4.718
2022-11-14T07:07:23.017Z,4.738
2022-11-14T07:08:30.014Z,4.761
2022-11-14T07:09:17.284Z,4.793
2022-11-14T07:10:17.666Z,4.831
2022-11-14T07:11:18.612Z,4.849
2022-11-14T07:12:18.206Z,4.886
2022-11-14T07:13:18.679Z,4.926
2022-11-14T07:14:17.960Z,4.960
2022-11-14T07:15:18.662Z,4.985
2022-11-14T07:16:17.831Z,5.012
2022-11-14T07:17:18.269Z,5.038
2022-11-14T07:18:17.557Z,5.065
2022-11-14T07:19:18.112Z,5.087
2022-11-14T07:20:59.095Z,5.157
2022-11-14T07:21:17.256Z,5.157
2022-11-14T07:22:17.865Z,5.173
2022-11-14T07:23:22.668Z,5.192
2022-11-14T07:24:17.804Z,5.237
2022-11-14T07:25:18.184Z,5.254
2022-11-14T07:26:17.868Z,5.276
2022-11-14T07:27:18.779Z,5.305
2022-11-14T07:28:18.523Z,5.328
2022-11-14T07:29:18.685Z,5.361
2022-11-14T07:30:18.750Z,5.368
2022-11-14T07:31:18.187Z,5.365
2022-11-14T07:32:17.959Z,5.372
2022-11-14T07:33:18.751Z,5.392
2022-11-14T07:34:18.255Z,5.389
2022-11-14T07:35:18.125Z,5.387
2022-11-14T07:36:17.911Z,5.415
2022-11-14T07:37:18.269Z,5.455
2022-11-14T07:38:17.584Z,5.466
2022-11-14T07:39:18.420Z,5.482
2022-11-14T07:40:18.109Z,5.493
2022-11-14T07:41:18.752Z,5.519
2022-11-14T07:42:18.078Z,5.526
2022-11-14T07:43:17.800Z,5.531
2022-11-14T07:44:18.278Z,5.551
2022-11-14T07:45:17.679Z,5.568
2022-11-14T07:46:18.251Z,5.596
2022-11-14T07:47:17.657Z,5.626
2022-11-14T07:48:18.115Z,5.635
2022-11-14T07:49:17.187Z,5.666
2022-11-14T07:50:20.779Z,5.690
2022-11-14T07:51:18.444Z,5.701
2022-11-14T07:52:17.642Z,5.718
2022-11-14T07:53:17.967Z,5.726
2022-11-14T07:54:18.078Z,5.738
2022-11-14T07:55:17.586Z,5.776
2022-11-14T07:56:17.798Z,5.818
2022-11-14T07:57:18.133Z,5.849
2022-11-14T07:58:17.560Z,5.841
2022-11-14T07:59:18.894Z,5.838
2022-11-14T08:00:19.140Z,5.833
2022-11-14T08:01:17.581Z,5.840
2022-11-14T08:02:17.921Z,5.860
2022-11-14T08:03:18.163Z,5.866
2022-11-14T08:04:17.371Z,5.896
2022-11-14T08:05:17.303Z,5.920
2022-11-14T08:06:17.199Z,5.941
2022-11-14T08:07:22.373Z,5.993
2022-11-14T08:08:17.809Z,6.018
2022-11-14T08:09:19.555Z,6.030
2022-11-14T08:10:17.358Z,6.068
2022-11-14T08:11:34.350Z,6.101
2022-11-14T08:12:17.164Z,6.108
2022-11-14T08:13:37.968Z,6.146
2022-11-14T08:14:17.893Z,6.146
2022-11-14T08:15:18.142Z,6.138
2022-11-14T08:16:19.715Z,6.138
2022-11-14T08:17:17.878Z,6.175
2022-11-14T08:18:17.715Z,6.203
2022-11-14T08:19:17.897Z,6.226
2022-11-14T08:20:17.792Z,6.226
2022-11-14T08:21:17.685Z,6.253
2022-11-14T08:22:17.305Z,6.269
2022-11-14T08:23:17.316Z,6.280
2022-11-14T08:24:17.364Z,6.301
2022-11-14T08:25:31.130Z,6.308
2022-11-14T08:26:17.334Z,6.308
2022-11-14T08:27:17.584Z,6.301
2022-11-14T08:28:17.476Z,6.311
2022-11-14T08:29:17.577Z,6.306
2022-11-14T08:30:17.399Z,6.315
2022-11-14T08:31:17.264Z,6.331
2022-11-14T08:32:17.406Z,6.356
2022-11-14T08:33:17.468Z,6.353
2022-11-14T08:34:17.548Z,6.388
2022-11-14T08:35:17.961Z,6.411
2022-11-14T08:36:17.742Z,6.428
2022-11-14T08:37:17.779Z,6.409
2022-11-14T08:38:17.411Z,6.421
2022-11-14T08:39:17.547Z,6.428
2022-11-14T08:40:17.737Z,6.426
2022-11-14T08:41:17.359Z,6.434
2022-11-14T08:42:17.163Z,6.434
2022-11-14T08:43:17.159Z,6.454
2022-11-14T08:44:17.434Z,6.461
2022-11-14T08:45:17.579Z,6.466
2022-11-14T08:46:19.667Z,6.466
2022-11-14T08:47:19.618Z,6.481
2022-11-14T08:48:17.746Z,6.473
2022-11-14T08:49:17.523Z,6.481
2022-11-14T08:50:17.177Z,6.489
2022-11-14T08:51:17.068Z,6.498
2022-11-14T08:53:17.743Z,6.530
2022-11-14T08:54:17.883Z,6.541
2022-11-14T08:55:18.015Z,6.552
2022-11-14T08:56:17.015Z,6.559
2022-11-14T08:57:16.761Z,6.565
2022-11-14T08:58:17.696Z,6.598
2022-11-14T08:59:19.568Z,6.595
2022-11-14T09:00:18.309Z,6.619
2022-11-14T09:01:16.884Z,6.622
2022-11-14T09:02:17.911Z,6.627
2022-11-14T09:03:17.893Z,6.634
2022-11-14T09:04:17.997Z,6.642
2022-11-14T09:05:17.890Z,6.677
2022-11-14T09:06:18.458Z,6.691
2022-11-14T09:07:17.247Z,6.688
2022-11-14T09:08:17.451Z,6.705
2022-11-14T09:09:17.512Z,6.711
2022-11-14T09:10:17.468Z,6.690
2022-11-14T09:11:20.506Z,6.686
2022-11-14T09:12:17.139Z,6.703
2022-11-14T09:13:17.245Z,6.715
2022-11-14T09:14:17.568Z,6.730
2022-11-14T09:15:17.742Z,6.735
2022-11-14T09:16:17.655Z,6.730
2022-11-14T09:17:17.878Z,6.726
2022-11-14T09:18:17.651Z,6.739
2022-11-14T09:19:50.233Z,6.766
2022-11-14T09:20:17.549Z,6.766
2022-11-14T09:21:17.468Z,6.773
2022-11-14T09:22:17.579Z,6.795
2022-11-14T09:23:17.354Z,6.806
2022-11-14T09:24:17.421Z,6.815
2022-11-14T09:25:17.956Z,6.835
2022-11-14T09:26:18.014Z,6.869
2022-11-14T09:27:17.067Z,6.871
2022-11-14T09:28:17.392Z,6.891
2022-11-14T09:29:17.597Z,6.893
2022-11-14T09:30:17.994Z,6.908
2022-11-14T09:31:17.751Z,6.918
2022-11-14T09:32:18.136Z,6.928
2022-11-14T09:33:19.152Z,6.943
2022-11-14T09:34:17.817Z,6.993
2022-11-14T09:35:17.610Z,6.989
2022-11-14T09:36:17.685Z,7.054
2022-11-14T09:37:17.612Z,7.094
2022-11-14T09:38:17.895Z,7.111
2022-11-14T09:39:17.944Z,7.130
2022-11-14T09:40:18.312Z,7.161
2022-11-14T09:41:18.048Z,7.204
2022-11-14T09:43:17.336Z,7.311
2022-11-14T09:44:20.513Z,7.323
2022-11-14T09:45:18.272Z,7.351
2022-11-14T09:46:18.060Z,7.429
2022-11-14T09:47:21.055Z,7.441
2022-11-14T09:48:18.235Z,7.485
2022-11-14T09:49:17.141Z,7.496
2022-11-14T09:50:20.577Z,7.493
2022-11-14T09:51:17.073Z,7.533
2022-11-14T09:52:16.753Z,7.591
2022-11-14T09:53:18.098Z,7.611
2022-11-14T09:54:17.079Z,7.610
2022-11-14T09:55:17.391Z,7.628
2022-11-14T09:56:17.497Z,7.643
2022-11-14T09:57:17.670Z,7.653
2022-11-14T09:58:17.773Z,7.635
2022-11-14T09:59:17.730Z,7.633
2022-11-14T10:00:18.599Z,7.653
2022-11-14T10:01:17.716Z,7.671
2022-11-14T10:02:18.097Z,7.693
2022-11-14T10:03:17.324Z,7.733
2022-11-14T10:04:17.379Z,7.735
2022-11-14T10:05:17.739Z,7.753
2022-11-14T10:06:17.747Z,7.791
2022-11-14T10:07:18.128Z,7.793
2022-11-14T10:08:17.733Z,7.795
2022-11-14T10:09:17.742Z,7.789
2022-11-14T10:10:18.107Z,7.801
2022-11-14T10:11:17.552Z,7.808
2022-11-14T10:12:17.534Z,7.828
2022-11-14T10:13:17.846Z,7.835
2022-11-14T10:14:18.018Z,7.828
2022-11-14T10:15:17.610Z,7.840
2022-11-14T10:16:17.638Z,7.869
2022-11-14T10:17:18.199Z,7.880
2022-11-14T10:18:17.460Z,7.901
2022-11-14T10:19:17.787Z,7.891
2022-11-14T10:20:18.058Z,7.897
2022-11-14T10:21:17.139Z,7.902
2022-11-14T10:22:16.797Z,7.918
2022-11-14T10:23:17.692Z,7.914
2022-11-14T10:24:17.751Z,7.906
2022-11-14T10:25:18.226Z,7.922
2022-11-14T10:26:17.411Z,7.955
2022-11-14T10:27:17.838Z,7.994
2022-11-14T10:28:17.720Z,8.034
2022-11-14T10:29:17.678Z,8.037
2022-11-14T10:31:17.732Z,8.069
2022-11-14T10:32:17.531Z,8.086
2022-11-14T10:33:17.803Z,8.090
2022-11-14T10:34:17.995Z,8.088
2022-11-14T10:35:17.457Z,8.098
2022-11-14T10:36:18.017Z,8.109
2022-11-14T10:37:17.641Z,8.119
2022-11-14T10:38:18.358Z,8.114
2022-11-14T10:39:17.524Z,8.141
2022-11-14T10:40:31.367Z,8.158
2022-11-14T10:41:55.453Z,8.171
2022-11-14T10:42:31.413Z,8.175
2022-11-14T10:43:17.538Z,8.175
2022-11-14T10:44:17.846Z,8.223
2022-11-14T10:45:18.347Z,8.244
2022-11-14T10:46:17.312Z,8.248
2022-11-14T10:47:17.549Z,8.278
2022-11-14T10:48:17.772Z,8.284
2022-11-14T10:49:18.138Z,8.284
2022-11-14T10:50:17.415Z,8.346
2022-11-14T10:51:17.652Z,8.391
2022-11-14T10:52:17.829Z,8.418
2022-11-14T10:53:18.016Z,8.406
2022-11-14T10:54:36.005Z,8.460
2022-11-14T10:55:17.316Z,8.460
2022-11-14T10:56:17.456Z,8.458
2022-11-14T10:57:17.605Z,8.506
2022-11-14T10:58:17.831Z,8.561
2022-11-14T10:59:18.213Z,8.593
2022-11-14T11:00:18.711Z,8.604
2022-11-14T11:01:17.847Z,8.578
2022-11-14T11:02:18.070Z,8.579
2022-11-14T11:03:17.357Z,8.596
2022-11-14T11:04:17.558Z,8.604
2022-11-14T11:05:18.029Z,8.593
2022-11-14T11:06:36.024Z,8.571
2022-11-14T11:07:17.348Z,8.568
2022-11-14T11:08:50.980Z,8.616
2022-11-14T11:09:17.633Z,8.616
2022-11-14T11:10:17.955Z,8.676
2022-11-14T11:11:17.879Z,8.720
2022-11-14T11:12:40.561Z,8.741
2022-11-14T11:13:18.543Z,8.741
2022-11-14T11:14:19.382Z,8.774
2022-11-14T11:15:18.091Z,8.784
2022-11-14T11:16:17.726Z,8.789
2022-11-14T11:17:17.760Z,8.848
2022-11-14T11:18:18.729Z,8.881
2022-11-14T11:19:18.499Z,8.909
2022-11-14T11:20:18.882Z,8.896
2022-11-14T11:21:19.000Z,8.899
2022-11-14T11:22:18.308Z,8.930
2022-11-14T11:23:18.194Z,8.965
2022-11-14T11:24:17.968Z,8.996
2022-11-14T11:25:18.808Z,9.026
2022-11-14T11:26:19.274Z,9.043
2022-11-14T11:27:18.638Z,9.033
2022-11-14T11:28:18.526Z,9.058
2022-11-14T11:29:19.005Z,9.055
2022-11-14T11:30:18.744Z,9.058
2022-11-14T11:31:19.060Z,9.064
2022-11-14T11:32:18.639Z,9.083
2022-11-14T11:33:19.073Z,9.096
2022-11-14T11:34:18.627Z,9.121
2022-11-14T11:35:19.021Z,9.121
2022-11-14T11:36:18.056Z,9.143
2022-11-14T11:37:18.374Z,9.128
2022-11-14T11:38:22.217Z,9.131
2022-11-14T11:39:17.768Z,9.131
2022-11-14T11:40:18.017Z,9.141
2022-11-14T11:42:07.725Z,9.097
2022-11-14T11:42:18.066Z,9.097
2022-11-14T11:43:45.851Z,9.088
2022-11-14T11:44:18.768Z,9.088
2022-11-14T11:45:18.842Z,9.087
2022-11-14T11:46:18.634Z,9.046
2022-11-14T11:47:18.249Z,9.028
2022-11-14T11:48:17.868Z,9.045
2022-11-14T11:49:18.499Z,9.067
2022-11-14T11:50:18.359Z,9.045
2022-11-14T11:51:18.287Z,9.034
2022-11-14T11:52:18.022Z,8.965
2022-11-14T11:53:17.480Z,8.925
2022-11-14T11:54:18.243Z,8.906
2022-11-14T11:55:18.327Z,8.882
2022-11-14T11:56:17.717Z,8.876
2022-11-14T11:57:21.674Z,8.878
2022-11-14T11:58:17.766Z,8.873
2022-11-14T11:59:18.453Z,8.932
2022-11-14T12:00:19.468Z,8.923
2022-11-14T12:01:18.476Z,8.895
2022-11-14T12:02:20.099Z,8.883
2022-11-14T12:03:20.666Z,8.885
2022-11-14T12:04:18.322Z,8.873
2022-11-14T12:05:18.064Z,8.887
2022-11-14T12:06:19.363Z,8.881
2022-11-14T12:07:19.704Z,8.883
2022-11-14T12:09:18.703Z,8.869
2022-11-14T12:10:18.353Z,8.886
2022-11-14T12:11:18.764Z,8.914
2022-11-14T12:12:18.349Z,8.914
2022-11-14T12:13:18.479Z,8.916
2022-11-14T12:14:18.487Z,8.926
2022-11-14T12:15:18.510Z,8.928
2022-11-14T12:16:19.825Z,8.925
2022-11-14T12:17:18.298Z,8.948
2022-11-14T12:18:17.948Z,8.976
2022-11-14T12:19:18.363Z,9.013
2022-11-14T12:20:17.695Z,9.045
2022-11-14T12:21:18.348Z,9.108
2022-11-14T12:22:17.781Z,9.159
2022-11-14T12:23:18.288Z,9.206
2022-11-14T12:24:17.878Z,9.239
2022-11-14T12:25:18.464Z,9.248
2022-11-14T12:26:17.884Z,9.263
2022-11-14T12:27:18.722Z,9.283
2022-11-14T12:28:18.354Z,9.316
2022-11-14T12:29:22.454Z,9.319
2022-11-14T12:30:17.620Z,9.313
2022-11-14T12:31:18.491Z,9.324
2022-11-14T12:32:17.994Z,9.273
2022-11-14T12:33:17.540Z,9.270
2022-11-14T12:34:18.154Z,9.288
2022-11-14T12:35:18.297Z,9.295
2022-11-14T12:36:18.386Z,9.296
2022-11-14T12:37:18.178Z,9.301
2022-11-14T12:38:17.682Z,9.289
2022-11-14T12:39:19.122Z,9.321
2022-11-14T12:40:17.825Z,9.359
2022-11-14T12:41:18.492Z,9.396
2022-11-14T12:42:19.111Z,9.456
2022-11-14T12:43:17.689Z,9.456
2022-11-14T12:44:18.824Z,9.423
2022-11-14T12:45:18.330Z,9.386
2022-11-14T12:46:17.792Z,9.411
2022-11-14T12:47:18.012Z,9.399
2022-11-14T12:48:17.651Z,9.364
2022-11-14T12:49:23.167Z,9.413
2022-11-14T12:50:17.695Z,9.413
2022-11-14T12:51:18.667Z,9.448
2022-11-14T12:52:18.015Z,9.463
2022-11-14T12:53:17.860Z,9.428
2022-11-14T12:54:18.036Z,9.488
2022-11-14T12:55:17.815Z,9.476
2022-11-14T12:56:18.060Z,9.489
2022-11-14T12:57:17.463Z,9.496
2022-11-14T12:58:18.026Z,9.414
2022-11-14T12:59:17.471Z,9.341